Shannon Mary — WDH6439 — position and weather

sailwx.info

Track history (hours):
 
Tides and Currents Weather Stations Pressure Air Temp Water Temp Dewpoint Dewpoint Depression Visibility Wind Speed Wind Dir Waves Ship Positions

Shannon Mary

Owner: Genesis Marine, LLC, Houston, TX. More information available from US FCC via Universal Licensing System and Coast Guard Vessel Documentation Center.

Last reported at 2017-Dec-17 02:30 UTC. Time now 2017-Dec-17 02:45 UTC.
Position N 30°04' W 093°21'.

Length 26 m; draft 3.2 m.

Type: Ship (hazmat cat A). MMSI: 367637970.

Date/timePositionNaut miles runAvg speedWind from/ knotsBaromVisibWave heightAir tempDewpointWater temp
2017-Dec-17 02:30N 30°04' W 093°21'0 0.0
2017-Dec-17 02:00N 30°04' W 093°21'0 0.0
2017-Dec-17 01:30N 30°04' W 093°21'0 0.0
2017-Dec-17 01:00N 30°04' W 093°21'0 0.0
2017-Dec-17 00:31N 30°04' W 093°21'0 0.0
2017-Dec-17 00:00N 30°04' W 093°21'0 0.0
2017-Dec-16 23:31N 30°04' W 093°21'0 0.0
2017-Dec-16 23:00N 30°04' W 093°21'0 0.0
2017-Dec-16 22:30N 30°04' W 093°21'0 0.0
2017-Dec-16 22:01N 30°04' W 093°21'0 0.0
2017-Dec-16 21:30N 30°04' W 093°21'0 0.0
2017-Dec-16 21:00N 30°04' W 093°21'0 0.0
2017-Dec-16 20:30N 30°04' W 093°21'0 0.0
2017-Dec-16 20:00N 30°04' W 093°21'0 0.0
2017-Dec-16 19:30N 30°04' W 093°21'0 0.0
2017-Dec-16 19:00N 30°04' W 093°21'0 0.0
2017-Dec-16 18:31N 30°04' W 093°21'0 0.0
2017-Dec-16 18:00N 30°04' W 093°21'0 0.0
2017-Dec-16 17:30N 30°04' W 093°21'0 0.0
2017-Dec-16 17:01N 30°04' W 093°21'0 0.0
2017-Dec-16 16:31N 30°04' W 093°21'0 0.0
2017-Dec-16 16:00N 30°04' W 093°21'0 0.0
2017-Dec-16 15:30N 30°04' W 093°21'0 0.0
2017-Dec-16 15:00N 30°04' W 093°21'0 0.0
2017-Dec-16 14:31N 30°04' W 093°21'0 0.0
2017-Dec-16 14:01N 30°04' W 093°21'0 0.0
2017-Dec-16 13:30N 30°04' W 093°21'0 0.1
2017-Dec-16 13:00N 30°04' W 093°20'0 0.1
2017-Dec-16 12:31N 30°04' W 093°20'0 0.0
2017-Dec-16 12:00N 30°04' W 093°20'1 1.1
2017-Dec-16 11:27N 30°04' W 093°21'2 4.4
2017-Dec-16 10:58N 30°04' W 093°23'5 4.9
2017-Dec-16 09:56N 30°04' W 093°29'2 5.4
2017-Dec-16 09:30N 30°04' W 093°32'3 5.4
2017-Dec-16 09:00N 30°04' W 093°35'3 5.9
2017-Dec-16 08:30N 30°04' W 093°38'4 6.2
2017-Dec-16 07:55N 30°03' W 093°43'  
2017-Dec-12 09:24N 29°23' W 094°46'2 5.1
2017-Dec-12 08:59N 29°22' W 094°48'4 5.9
2017-Dec-12 08:21N 29°19' W 094°51'6 4.6
2017-Dec-12 06:58N 29°17' W 094°58'2 4.5
2017-Dec-12 06:29N 29°15' W 094°60'3 4.5
2017-Dec-12 05:43N 29°13' W 095°02'1 4.1
2017-Dec-12 05:28N 29°12' W 095°03'2 4.7
2017-Dec-12 04:59N 29°11' W 095°05'4 5.2
2017-Dec-12 04:18N 29°09' W 095°09'101 3.0
2017-Dec-10 19:13N 28°15' W 096°46'1 5.6
2017-Dec-10 18:59N 28°14' W 096°47'9 3.1
2017-Dec-10 16:11N 28°08' W 096°54'1 4.4
2017-Dec-10 15:58N 28°08' W 096°55'2 4.6
2017-Dec-10 15:30N 28°06' W 096°56'3 5.8
2017-Dec-10 14:59N 28°04' W 096°59'3 5.6
2017-Dec-10 14:30N 28°01' W 097°00'3 5.3
2017-Dec-10 14:00N 27°59' W 097°02'3 5.2
2017-Dec-10 13:29N 27°57' W 097°04'2 5.0
2017-Dec-10 13:00N 27°55' W 097°03'2 4.7
2017-Dec-10 12:30N 27°52' W 097°03'2 4.5
2017-Dec-10 11:59N 27°50' W 097°05'4 7.9
2017-Dec-10 11:29N 27°50' W 097°09'4 7.3
2017-Dec-10 10:59N 27°49' W 097°13'3 7.0
2017-Dec-10 10:30N 27°49' W 097°17'4 6.9
2017-Dec-10 09:52N 27°49' W 097°22'2 6.2
2017-Dec-10 09:29N 27°49' W 097°25'1 2.6
2017-Dec-10 09:00N 27°49' W 097°26'0 0.3
2017-Dec-10 08:29N 27°49' W 097°26'0 0.1
2017-Dec-10 07:59N 27°49' W 097°26'0 0.0
2017-Dec-10 07:30N 27°49' W 097°26'0 0.0
2017-Dec-10 06:56N 27°49' W 097°26'0 0.0
2017-Dec-10 06:30N 27°49' W 097°26'0 0.0
2017-Dec-10 06:00N 27°49' W 097°26'0 0.0
2017-Dec-10 05:29N 27°49' W 097°26'0 0.0
2017-Dec-10 04:59N 27°49' W 097°26'0 0.0
2017-Dec-10 04:29N 27°49' W 097°26'0 0.0
2017-Dec-10 03:59N 27°49' W 097°26'0 0.0
2017-Dec-10 03:29N 27°49' W 097°26'0 0.0
2017-Dec-10 00:14N 27°49' W 097°26'0 0.0
2017-Dec-09 23:50N 27°49' W 097°26'0 0.0
2017-Dec-09 23:27N 27°49' W 097°26'0 0.0
2017-Dec-09 22:53N 27°49' W 097°26'0 0.0
2017-Dec-09 22:12N 27°49' W 097°26'0 0.0
2017-Dec-09 21:52N 27°49' W 097°26'0 0.0
2017-Dec-09 21:30N 27°49' W 097°26'0 0.0
2017-Dec-09 20:56N 27°49' W 097°26'0 0.0
2017-Dec-09 14:40N 27°49' W 097°26'0 0.0
2017-Dec-09 14:25N 27°49' W 097°26'0 0.0
2017-Dec-09 13:54N 27°49' W 097°26'0 0.0
2017-Dec-09 13:29N 27°49' W 097°26'0 0.0
2017-Dec-09 12:59N 27°49' W 097°26'0 0.1
2017-Dec-09 12:30N 27°49' W 097°26'0 0.0
2017-Dec-09 10:40N 27°49' W 097°26'0 0.0
2017-Dec-09 10:29N 27°49' W 097°26'0 0.0
2017-Dec-09 10:00N 27°49' W 097°26'0 0.0
2017-Dec-09 04:01N 27°49' W 097°26'0 0.0
2017-Dec-09 03:53N 27°49' W 097°26'0 0.0
2017-Dec-09 03:23N 27°49' W 097°26'0 0.0
2017-Dec-09 02:57N 27°49' W 097°26'0 0.0
2017-Dec-09 01:16N 27°49' W 097°26'0 0.1
2017-Dec-09 00:58N 27°49' W 097°26'2 3.6
2017-Dec-09 00:29N 27°49' W 097°24'3 6.9
2017-Dec-08 23:59N 27°49' W 097°20'3 7.0
2017-Dec-08 23:30N 27°49' W 097°16'3 6.6
2017-Dec-08 23:00N 27°49' W 097°13'3 5.9
2017-Dec-08 22:30N 27°50' W 097°09'3 5.6
2017-Dec-08 21:59N 27°50' W 097°06'2 4.7
2017-Dec-08 21:29N 27°51' W 097°04'2 3.6
2017-Dec-08 21:00N 27°52' W 097°03'0 0.1
2017-Dec-08 20:30N 27°52' W 097°03'0 0.0
2017-Dec-08 20:00N 27°52' W 097°03'0 0.1
2017-Dec-08 19:30N 27°52' W 097°03'0 0.0
2017-Dec-08 19:00N 27°52' W 097°03'0 0.0
2017-Dec-08 18:30N 27°52' W 097°03'0 0.0
2017-Dec-08 17:59N 27°52' W 097°03'0 0.0
2017-Dec-08 17:29N 27°52' W 097°03'0 0.0
2017-Dec-08 17:00N 27°52' W 097°03'0 0.0
2017-Dec-08 16:30N 27°52' W 097°03'0 0.0
2017-Dec-08 15:59N 27°52' W 097°03'0 0.0
2017-Dec-08 15:29N 27°52' W 097°03'0 0.0
2017-Dec-08 14:59N 27°52' W 097°03'0 0.0
2017-Dec-08 14:29N 27°52' W 097°03'0 0.0
2017-Dec-08 14:00N 27°52' W 097°03'0 0.0
2017-Dec-08 13:30N 27°52' W 097°03'0 0.0
2017-Dec-08 13:00N 27°52' W 097°03'0 0.0
2017-Dec-08 12:30N 27°52' W 097°03'0 0.0
2017-Dec-08 12:00N 27°52' W 097°03'0 0.0
2017-Dec-08 11:30N 27°52' W 097°03'0 0.0
2017-Dec-08 10:59N 27°52' W 097°03'0 0.0
2017-Dec-08 10:30N 27°52' W 097°03'0 0.0
2017-Dec-08 10:00N 27°52' W 097°03'0 0.0
2017-Dec-08 09:30N 27°52' W 097°03'0 0.0
2017-Dec-08 09:00N 27°52' W 097°03'0 0.0
2017-Dec-08 08:30N 27°52' W 097°03'0 0.0
2017-Dec-08 07:59N 27°52' W 097°03'0 0.0
2017-Dec-08 07:29N 27°52' W 097°03'0 0.0
2017-Dec-08 06:59N 27°52' W 097°03'0 0.0
2017-Dec-08 06:30N 27°52' W 097°03'0 0.0
2017-Dec-08 06:00N 27°52' W 097°03'0 0.0
2017-Dec-08 05:30N 27°52' W 097°03'0 0.0
2017-Dec-08 04:59N 27°52' W 097°03'0 0.0
2017-Dec-08 04:29N 27°52' W 097°03'0 0.0
2017-Dec-08 03:59N 27°52' W 097°03'0 0.0
2017-Dec-08 03:29N 27°52' W 097°03'0 0.0
2017-Dec-08 03:00N 27°52' W 097°03'0 0.0
2017-Dec-08 02:30N 27°52' W 097°03'0 0.0
2017-Dec-08 02:00N 27°52' W 097°03'0 0.0
2017-Dec-08 01:29N 27°52' W 097°03'0 0.0
2017-Dec-08 00:59N 27°52' W 097°03'0 0.0
2017-Dec-08 00:30N 27°52' W 097°03'0 0.0
2017-Dec-08 00:00N 27°52' W 097°03'0 0.0
2017-Dec-07 23:30N 27°52' W 097°03'0 0.0
2017-Dec-07 22:59N 27°52' W 097°03'0 0.0
2017-Dec-07 22:29N 27°52' W 097°03'0 0.0
2017-Dec-07 21:59N 27°52' W 097°03'0 0.0
2017-Dec-07 21:29N 27°52' W 097°03'0 0.0
2017-Dec-07 20:59N 27°52' W 097°03'0 0.0
2017-Dec-07 20:29N 27°52' W 097°03'0 0.0
2017-Dec-07 20:00N 27°52' W 097°03'0 0.0
2017-Dec-07 19:30N 27°52' W 097°03'0 0.0
2017-Dec-07 19:00N 27°52' W 097°03'0 0.0
2017-Dec-07 18:29N 27°52' W 097°03'0 0.0
2017-Dec-07 17:59N 27°52' W 097°03'0 0.0
2017-Dec-07 17:30N 27°52' W 097°03'0 0.0
2017-Dec-07 17:00N 27°52' W 097°03'0 0.0
2017-Dec-07 16:29N 27°52' W 097°03'0 0.0
2017-Dec-07 15:59N 27°52' W 097°03'0 0.0
2017-Dec-07 15:29N 27°52' W 097°03'0 0.0
2017-Dec-07 15:00N 27°52' W 097°03'0 0.0
2017-Dec-07 14:30N 27°52' W 097°03'0 0.0
2017-Dec-07 14:00N 27°52' W 097°03'0 0.0
2017-Dec-07 13:30N 27°52' W 097°03'0 0.0
2017-Dec-07 12:59N 27°52' W 097°03'0 0.0
2017-Dec-07 12:29N 27°52' W 097°03'0 0.0
2017-Dec-07 11:59N 27°52' W 097°03'0 0.0
2017-Dec-07 11:29N 27°52' W 097°03'0 0.0
2017-Dec-07 11:00N 27°52' W 097°03'0 0.0
2017-Dec-07 10:30N 27°52' W 097°03'0 0.0
2017-Dec-07 09:59N 27°52' W 097°03'0 0.0
2017-Dec-07 09:29N 27°52' W 097°03'0 0.0
2017-Dec-07 08:59N 27°52' W 097°03'0 0.0
2017-Dec-07 08:30N 27°52' W 097°03'0 0.0
2017-Dec-07 08:00N 27°52' W 097°03'0 0.0
2017-Dec-07 07:29N 27°52' W 097°03'0 0.0
2017-Dec-07 06:59N 27°52' W 097°03'0 0.0
2017-Dec-07 06:30N 27°52' W 097°03'0 0.0
2017-Dec-07 06:00N 27°52' W 097°03'0 0.0
2017-Dec-07 05:29N 27°52' W 097°03'0 0.0
2017-Dec-07 04:59N 27°52' W 097°03'0 0.0
2017-Dec-07 04:29N 27°52' W 097°03'0 0.0
2017-Dec-07 04:00N 27°52' W 097°03'0 0.0
2017-Dec-07 03:30N 27°52' W 097°03'0 0.0
2017-Dec-07 02:59N 27°52' W 097°03'  
Track history (hours):
 
Tides and Currents Weather Stations Pressure Air Temp Water Temp Dewpoint Dewpoint Depression Visibility Wind Speed Wind Dir Waves Ship Positions

Shannon Mary

Owner: Genesis Marine, LLC, Houston, TX. More information available from US FCC via Universal Licensing System and Coast Guard Vessel Documentation Center.

Last reported at 2017-Dec-17 02:30 UTC. Time now 2017-Dec-17 02:45 UTC.
Position N 30°04' W 093°21'.

Length 26 m; draft 3.2 m.

Type: Ship (hazmat cat A). MMSI: 367637970.

Date/timePositionNaut miles runAvg speedWind from/ knotsBaromVisibWave heightAir tempDewpointWater temp
2017-Dec-17 02:30N 30°04' W 093°21'0 0.0
2017-Dec-17 02:00N 30°04' W 093°21'0 0.0
2017-Dec-17 01:30N 30°04' W 093°21'0 0.0
2017-Dec-17 01:00N 30°04' W 093°21'0 0.0
2017-Dec-17 00:31N 30°04' W 093°21'0 0.0
2017-Dec-17 00:00N 30°04' W 093°21'0 0.0
2017-Dec-16 23:31N 30°04' W 093°21'0 0.0
2017-Dec-16 23:00N 30°04' W 093°21'0 0.0
2017-Dec-16 22:30N 30°04' W 093°21'0 0.0
2017-Dec-16 22:01N 30°04' W 093°21'0 0.0
2017-Dec-16 21:30N 30°04' W 093°21'0 0.0
2017-Dec-16 21:00N 30°04' W 093°21'0 0.0
2017-Dec-16 20:30N 30°04' W 093°21'0 0.0
2017-Dec-16 20:00N 30°04' W 093°21'0 0.0
2017-Dec-16 19:30N 30°04' W 093°21'0 0.0
2017-Dec-16 19:00N 30°04' W 093°21'0 0.0
2017-Dec-16 18:31N 30°04' W 093°21'0 0.0
2017-Dec-16 18:00N 30°04' W 093°21'0 0.0
2017-Dec-16 17:30N 30°04' W 093°21'0 0.0
2017-Dec-16 17:01N 30°04' W 093°21'0 0.0
2017-Dec-16 16:31N 30°04' W 093°21'0 0.0
2017-Dec-16 16:00N 30°04' W 093°21'0 0.0
2017-Dec-16 15:30N 30°04' W 093°21'0 0.0
2017-Dec-16 15:00N 30°04' W 093°21'0 0.0
2017-Dec-16 14:31N 30°04' W 093°21'0 0.0
2017-Dec-16 14:01N 30°04' W 093°21'0 0.0
2017-Dec-16 13:30N 30°04' W 093°21'0 0.1
2017-Dec-16 13:00N 30°04' W 093°20'0 0.1
2017-Dec-16 12:31N 30°04' W 093°20'0 0.0
2017-Dec-16 12:00N 30°04' W 093°20'1 1.1
2017-Dec-16 11:27N 30°04' W 093°21'2 4.4
2017-Dec-16 10:58N 30°04' W 093°23'5 4.9
2017-Dec-16 09:56N 30°04' W 093°29'2 5.4
2017-Dec-16 09:30N 30°04' W 093°32'3 5.4
2017-Dec-16 09:00N 30°04' W 093°35'3 5.9
2017-Dec-16 08:30N 30°04' W 093°38'4 6.2
2017-Dec-16 07:55N 30°03' W 093°43'  
2017-Dec-12 09:24N 29°23' W 094°46'2 5.1
2017-Dec-12 08:59N 29°22' W 094°48'4 5.9
2017-Dec-12 08:21N 29°19' W 094°51'6 4.6
2017-Dec-12 06:58N 29°17' W 094°58'2 4.5
2017-Dec-12 06:29N 29°15' W 094°60'3 4.5
2017-Dec-12 05:43N 29°13' W 095°02'1 4.1
2017-Dec-12 05:28N 29°12' W 095°03'2 4.7
2017-Dec-12 04:59N 29°11' W 095°05'4 5.2
2017-Dec-12 04:18N 29°09' W 095°09'101 3.0
2017-Dec-10 19:13N 28°15' W 096°46'1 5.6
2017-Dec-10 18:59N 28°14' W 096°47'9 3.1
2017-Dec-10 16:11N 28°08' W 096°54'1 4.4
2017-Dec-10 15:58N 28°08' W 096°55'2 4.6
2017-Dec-10 15:30N 28°06' W 096°56'3 5.8
2017-Dec-10 14:59N 28°04' W 096°59'3 5.6
2017-Dec-10 14:30N 28°01' W 097°00'3 5.3
2017-Dec-10 14:00N 27°59' W 097°02'3 5.2
2017-Dec-10 13:29N 27°57' W 097°04'2 5.0
2017-Dec-10 13:00N 27°55' W 097°03'2 4.7
2017-Dec-10 12:30N 27°52' W 097°03'2 4.5
2017-Dec-10 11:59N 27°50' W 097°05'4 7.9
2017-Dec-10 11:29N 27°50' W 097°09'4 7.3
2017-Dec-10 10:59N 27°49' W 097°13'3 7.0
2017-Dec-10 10:30N 27°49' W 097°17'4 6.9
2017-Dec-10 09:52N 27°49' W 097°22'2 6.2
2017-Dec-10 09:29N 27°49' W 097°25'1 2.6
2017-Dec-10 09:00N 27°49' W 097°26'0 0.3
2017-Dec-10 08:29N 27°49' W 097°26'0 0.1
2017-Dec-10 07:59N 27°49' W 097°26'0 0.0
2017-Dec-10 07:30N 27°49' W 097°26'0 0.0
2017-Dec-10 06:56N 27°49' W 097°26'0 0.0
2017-Dec-10 06:30N 27°49' W 097°26'0 0.0
2017-Dec-10 06:00N 27°49' W 097°26'0 0.0
2017-Dec-10 05:29N 27°49' W 097°26'0 0.0
2017-Dec-10 04:59N 27°49' W 097°26'0 0.0
2017-Dec-10 04:29N 27°49' W 097°26'0 0.0
2017-Dec-10 03:59N 27°49' W 097°26'0 0.0
2017-Dec-10 03:29N 27°49' W 097°26'0 0.0
2017-Dec-10 00:14N 27°49' W 097°26'0 0.0
2017-Dec-09 23:50N 27°49' W 097°26'0 0.0
2017-Dec-09 23:27N 27°49' W 097°26'0 0.0
2017-Dec-09 22:53N 27°49' W 097°26'0 0.0
2017-Dec-09 22:12N 27°49' W 097°26'0 0.0
2017-Dec-09 21:52N 27°49' W 097°26'0 0.0
2017-Dec-09 21:30N 27°49' W 097°26'0 0.0
2017-Dec-09 20:56N 27°49' W 097°26'0 0.0
2017-Dec-09 14:40N 27°49' W 097°26'0 0.0
2017-Dec-09 14:25N 27°49' W 097°26'0 0.0
2017-Dec-09 13:54N 27°49' W 097°26'0 0.0
2017-Dec-09 13:29N 27°49' W 097°26'0 0.0
2017-Dec-09 12:59N 27°49' W 097°26'0 0.1
2017-Dec-09 12:30N 27°49' W 097°26'0 0.0
2017-Dec-09 10:40N 27°49' W 097°26'0 0.0
2017-Dec-09 10:29N 27°49' W 097°26'0 0.0
2017-Dec-09 10:00N 27°49' W 097°26'0 0.0
2017-Dec-09 04:01N 27°49' W 097°26'0 0.0
2017-Dec-09 03:53N 27°49' W 097°26'0 0.0
2017-Dec-09 03:23N 27°49' W 097°26'0 0.0
2017-Dec-09 02:57N 27°49' W 097°26'0 0.0
2017-Dec-09 01:16N 27°49' W 097°26'0 0.1
2017-Dec-09 00:58N 27°49' W 097°26'2 3.6
2017-Dec-09 00:29N 27°49' W 097°24'3 6.9
2017-Dec-08 23:59N 27°49' W 097°20'3 7.0
2017-Dec-08 23:30N 27°49' W 097°16'3 6.6
2017-Dec-08 23:00N 27°49' W 097°13'3 5.9
2017-Dec-08 22:30N 27°50' W 097°09'3 5.6
2017-Dec-08 21:59N 27°50' W 097°06'2 4.7
2017-Dec-08 21:29N 27°51' W 097°04'2 3.6
2017-Dec-08 21:00N 27°52' W 097°03'0 0.1
2017-Dec-08 20:30N 27°52' W 097°03'0 0.0
2017-Dec-08 20:00N 27°52' W 097°03'0 0.1
2017-Dec-08 19:30N 27°52' W 097°03'0 0.0
2017-Dec-08 19:00N 27°52' W 097°03'0 0.0
2017-Dec-08 18:30N 27°52' W 097°03'0 0.0
2017-Dec-08 17:59N 27°52' W 097°03'0 0.0
2017-Dec-08 17:29N 27°52' W 097°03'0 0.0
2017-Dec-08 17:00N 27°52' W 097°03'0 0.0
2017-Dec-08 16:30N 27°52' W 097°03'0 0.0
2017-Dec-08 15:59N 27°52' W 097°03'0 0.0
2017-Dec-08 15:29N 27°52' W 097°03'0 0.0
2017-Dec-08 14:59N 27°52' W 097°03'0 0.0
2017-Dec-08 14:29N 27°52' W 097°03'0 0.0
2017-Dec-08 14:00N 27°52' W 097°03'0 0.0
2017-Dec-08 13:30N 27°52' W 097°03'0 0.0
2017-Dec-08 13:00N 27°52' W 097°03'0 0.0
2017-Dec-08 12:30N 27°52' W 097°03'0 0.0
2017-Dec-08 12:00N 27°52' W 097°03'0 0.0
2017-Dec-08 11:30N 27°52' W 097°03'0 0.0
2017-Dec-08 10:59N 27°52' W 097°03'0 0.0
2017-Dec-08 10:30N 27°52' W 097°03'0 0.0
2017-Dec-08 10:00N 27°52' W 097°03'0 0.0
2017-Dec-08 09:30N 27°52' W 097°03'0 0.0
2017-Dec-08 09:00N 27°52' W 097°03'0 0.0
2017-Dec-08 08:30N 27°52' W 097°03'0 0.0
2017-Dec-08 07:59N 27°52' W 097°03'0 0.0
2017-Dec-08 07:29N 27°52' W 097°03'0 0.0
2017-Dec-08 06:59N 27°52' W 097°03'0 0.0
2017-Dec-08 06:30N 27°52' W 097°03'0 0.0
2017-Dec-08 06:00N 27°52' W 097°03'0 0.0
2017-Dec-08 05:30N 27°52' W 097°03'0 0.0
2017-Dec-08 04:59N 27°52' W 097°03'0 0.0
2017-Dec-08 04:29N 27°52' W 097°03'0 0.0
2017-Dec-08 03:59N 27°52' W 097°03'0 0.0
2017-Dec-08 03:29N 27°52' W 097°03'0 0.0
2017-Dec-08 03:00N 27°52' W 097°03'0 0.0
2017-Dec-08 02:30N 27°52' W 097°03'0 0.0
2017-Dec-08 02:00N 27°52' W 097°03'0 0.0
2017-Dec-08 01:29N 27°52' W 097°03'0 0.0
2017-Dec-08 00:59N 27°52' W 097°03'0 0.0
2017-Dec-08 00:30N 27°52' W 097°03'0 0.0
2017-Dec-08 00:00N 27°52' W 097°03'0 0.0
2017-Dec-07 23:30N 27°52' W 097°03'0 0.0
2017-Dec-07 22:59N 27°52' W 097°03'0 0.0
2017-Dec-07 22:29N 27°52' W 097°03'0 0.0
2017-Dec-07 21:59N 27°52' W 097°03'0 0.0
2017-Dec-07 21:29N 27°52' W 097°03'0 0.0
2017-Dec-07 20:59N 27°52' W 097°03'0 0.0
2017-Dec-07 20:29N 27°52' W 097°03'0 0.0
2017-Dec-07 20:00N 27°52' W 097°03'0 0.0
2017-Dec-07 19:30N 27°52' W 097°03'0 0.0
2017-Dec-07 19:00N 27°52' W 097°03'0 0.0
2017-Dec-07 18:29N 27°52' W 097°03'0 0.0
2017-Dec-07 17:59N 27°52' W 097°03'0 0.0
2017-Dec-07 17:30N 27°52' W 097°03'0 0.0
2017-Dec-07 17:00N 27°52' W 097°03'0 0.0
2017-Dec-07 16:29N 27°52' W 097°03'0 0.0
2017-Dec-07 15:59N 27°52' W 097°03'0 0.0
2017-Dec-07 15:29N 27°52' W 097°03'0 0.0
2017-Dec-07 15:00N 27°52' W 097°03'0 0.0
2017-Dec-07 14:30N 27°52' W 097°03'0 0.0
2017-Dec-07 14:00N 27°52' W 097°03'0 0.0
2017-Dec-07 13:30N 27°52' W 097°03'0 0.0
2017-Dec-07 12:59N 27°52' W 097°03'0 0.0
2017-Dec-07 12:29N 27°52' W 097°03'0 0.0
2017-Dec-07 11:59N 27°52' W 097°03'0 0.0
2017-Dec-07 11:29N 27°52' W 097°03'0 0.0
2017-Dec-07 11:00N 27°52' W 097°03'0 0.0
2017-Dec-07 10:30N 27°52' W 097°03'0 0.0
2017-Dec-07 09:59N 27°52' W 097°03'0 0.0
2017-Dec-07 09:29N 27°52' W 097°03'0 0.0
2017-Dec-07 08:59N 27°52' W 097°03'0 0.0
2017-Dec-07 08:30N 27°52' W 097°03'0 0.0
2017-Dec-07 08:00N 27°52' W 097°03'0 0.0
2017-Dec-07 07:29N 27°52' W 097°03'0 0.0
2017-Dec-07 06:59N 27°52' W 097°03'0 0.0
2017-Dec-07 06:30N 27°52' W 097°03'0 0.0
2017-Dec-07 06:00N 27°52' W 097°03'0 0.0
2017-Dec-07 05:29N 27°52' W 097°03'0 0.0
2017-Dec-07 04:59N 27°52' W 097°03'0 0.0
2017-Dec-07 04:29N 27°52' W 097°03'0 0.0
2017-Dec-07 04:00N 27°52' W 097°03'0 0.0
2017-Dec-07 03:30N 27°52' W 097°03'0 0.0
2017-Dec-07 02:59N 27°52' W 097°03'  

Dump ship's entire track history